sensor_id;sensor_type;location;lat;lon;timestamp;pressure;altitude;pressure_sealevel;temperature;humidity
2841;BME280;53423;49.224;12.074;2023-03-26T00:01:51;97124.00;;;8.75;64.75
2841;BME280;53423;49.224;12.074;2023-03-26T00:04:23;97129.88;;;8.69;64.57
2841;BME280;53423;49.224;12.074;2023-03-26T00:06:53;97137.06;;;8.75;64.93
2841;BME280;53423;49.224;12.074;2023-03-26T00:09:21;97134.75;;;8.72;64.54
2841;BME280;53423;49.224;12.074;2023-03-26T00:11:49;97136.72;;;8.78;64.42
2841;BME280;53423;49.224;12.074;2023-03-26T00:14:17;97136.69;;;8.86;63.77
2841;BME280;53423;49.224;12.074;2023-03-26T00:16:45;97141.94;;;8.78;64.19
2841;BME280;53423;49.224;12.074;2023-03-26T00:19:15;97147.81;;;8.88;63.63
2841;BME280;53423;49.224;12.074;2023-03-26T00:21:43;97146.00;;;8.80;63.89
2841;BME280;53423;49.224;12.074;2023-03-26T00:24:12;97152.06;;;8.81;63.96
2841;BME280;53423;49.224;12.074;2023-03-26T00:26:42;97147.63;;;8.90;63.54
2841;BME280;53423;49.224;12.074;2023-03-26T00:29:14;97150.78;;;8.69;63.79
2841;BME280;53423;49.224;12.074;2023-03-26T00:31:42;97155.22;;;8.68;63.70
2841;BME280;53423;49.224;12.074;2023-03-26T00:34:12;97157.00;;;8.68;63.47
2841;BME280;53423;49.224;12.074;2023-03-26T00:36:41;97158.13;;;8.57;63.92
2841;BME280;53423;49.224;12.074;2023-03-26T00:39:09;97156.53;;;8.56;63.91
2841;BME280;53423;49.224;12.074;2023-03-26T00:41:38;97153.88;;;8.64;63.95
2841;BME280;53423;49.224;12.074;2023-03-26T00:44:09;97150.13;;;8.67;63.26
2841;BME280;53423;49.224;12.074;2023-03-26T00:46:37;97152.25;;;8.71;63.40
2841;BME280;53423;49.224;12.074;2023-03-26T00:49:05;97151.28;;;8.56;63.35
2841;BME280;53423;49.224;12.074;2023-03-26T00:51:36;97153.25;;;8.54;63.83
2841;BME280;53423;49.224;12.074;2023-03-26T00:54:05;97150.31;;;8.57;63.76
2841;BME280;53423;49.224;12.074;2023-03-26T00:56:34;97152.75;;;8.59;63.35
2841;BME280;53423;49.224;12.074;2023-03-26T00:59:04;97147.03;;;8.55;64.08
2841;BME280;53423;49.224;12.074;2023-03-26T01:01:32;97153.25;;;8.46;64.31
2841;BME280;53423;49.224;12.074;2023-03-26T01:04:19;97159.94;;;8.65;63.67
2841;BME280;53423;49.224;12.074;2023-03-26T01:06:49;97163.38;;;8.73;63.47
2841;BME280;53423;49.224;12.074;2023-03-26T01:09:20;97168.59;;;8.73;63.59
2841;BME280;53423;49.224;12.074;2023-03-26T01:11:48;97160.91;;;8.64;63.71
2841;BME280;53423;49.224;12.074;2023-03-26T01:14:20;97156.34;;;8.66;63.87
2841;BME280;53423;49.224;12.074;2023-03-26T01:16:51;97156.47;;;8.80;63.67
2841;BME280;53423;49.224;12.074;2023-03-26T01:19:26;97153.22;;;8.87;62.57
2841;BME280;53423;49.224;12.074;2023-03-26T01:21:56;97150.59;;;8.87;63.12
2841;BME280;53423;49.224;12.074;2023-03-26T01:24:26;97147.13;;;8.94;62.53
2841;BME280;53423;49.224;12.074;2023-03-26T01:27:18;97150.22;;;8.98;62.60
2841;BME280;53423;49.224;12.074;2023-03-26T01:29:52;97147.13;;;8.94;62.71
2841;BME280;53423;49.224;12.074;2023-03-26T01:32:27;97149.75;;;8.94;62.04
2841;BME280;53423;49.224;12.074;2023-03-26T01:35:11;97146.34;;;8.94;62.41
2841;BME280;53423;49.224;12.074;2023-03-26T01:37:55;97140.44;;;9.00;62.09
2841;BME280;53423;49.224;12.074;2023-03-26T01:40:28;97137.66;;;8.93;61.72
2841;BME280;53423;49.224;12.074;2023-03-26T01:43:09;97132.44;;;8.93;61.90
2841;BME280;53423;49.224;12.074;2023-03-26T01:45:41;97132.78;;;8.90;61.93
2841;BME280;53423;49.224;12.074;2023-03-26T01:48:11;97131.13;;;8.89;61.69
2841;BME280;53423;49.224;12.074;2023-03-26T01:50:40;97135.41;;;8.90;61.78
2841;BME280;53423;49.224;12.074;2023-03-26T01:53:08;97132.78;;;8.82;62.13
2841;BME280;53423;49.224;12.074;2023-03-26T01:55:50;97136.22;;;8.82;62.28
2841;BME280;53423;49.224;12.074;2023-03-26T01:58:28;97135.41;;;8.74;62.20
2841;BME280;53423;49.224;12.074;2023-03-26T02:01:05;97134.13;;;8.78;61.80
2841;BME280;53423;49.224;12.074;2023-03-26T02:03:42;97131.03;;;8.66;62.43
2841;BME280;53423;49.224;12.074;2023-03-26T02:06:15;97128.75;;;8.55;62.70
2841;BME280;53423;49.224;12.074;2023-03-26T02:08:51;97122.88;;;8.61;62.27
2841;BME280;53423;49.224;12.074;2023-03-26T02:11:21;97120.91;;;8.55;62.16
2841;BME280;53423;49.224;12.074;2023-03-26T02:14:02;97126.13;;;8.55;62.14
2841;BME280;53423;49.224;12.074;2023-03-26T02:16:30;97123.03;;;8.68;61.84
2841;BME280;53423;49.224;12.074;2023-03-26T02:18:58;97118.31;;;8.63;62.46
2841;BME280;53423;49.224;12.074;2023-03-26T02:21:27;97122.88;;;8.61;63.16
2841;BME280;53423;49.224;12.074;2023-03-26T02:24:00;97112.44;;;8.61;62.66
2841;BME280;53423;49.224;12.074;2023-03-26T02:26:33;97113.22;;;8.78;62.59
2841;BME280;53423;49.224;12.074;2023-03-26T02:29:03;97115.03;;;8.69;62.60
2841;BME280;53423;49.224;12.074;2023-03-26T02:31:31;97111.41;;;8.87;62.60
2841;BME280;53423;49.224;12.074;2023-03-26T02:33:59;97111.22;;;8.88;62.37
2841;BME280;53423;49.224;12.074;2023-03-26T02:36:27;97114.81;;;8.87;62.84
2841;BME280;53423;49.224;12.074;2023-03-26T02:38:56;97116.09;;;8.91;62.55
2841;BME280;53423;49.224;12.074;2023-03-26T02:41:25;97110.69;;;9.01;61.98
2841;BME280;53423;49.224;12.074;2023-03-26T02:43:55;97114.25;;;9.08;62.21
2841;BME280;53423;49.224;12.074;2023-03-26T02:46:23;97114.09;;;9.09;62.14
2841;BME280;53423;49.224;12.074;2023-03-26T02:48:50;97105.88;;;9.20;61.30
2841;BME280;53423;49.224;12.074;2023-03-26T02:51:18;97104.59;;;9.16;61.44
2841;BME280;53423;49.224;12.074;2023-03-26T02:53:46;97092.50;;;9.15;61.35
2841;BME280;53423;49.224;12.074;2023-03-26T02:56:15;97089.53;;;9.18;61.33
2841;BME280;53423;49.224;12.074;2023-03-26T02:58:43;97104.25;;;9.19;61.11
2841;BME280;53423;49.224;12.074;2023-03-26T03:01:14;97093.50;;;9.06;61.98
2841;BME280;53423;49.224;12.074;2023-03-26T03:03:44;97096.81;;;9.00;61.77
2841;BME280;53423;49.224;12.074;2023-03-26T03:06:13;97095.47;;;9.04;61.57
2841;BME280;53423;49.224;12.074;2023-03-26T03:08:42;97094.50;;;8.97;62.32
2841;BME280;53423;49.224;12.074;2023-03-26T03:11:12;97086.19;;;9.02;62.52
2841;BME280;53423;49.224;12.074;2023-03-26T03:13:41;97082.88;;;9.08;61.94
2841;BME280;53423;49.224;12.074;2023-03-26T03:16:10;97075.72;;;9.02;62.03
2841;BME280;53423;49.224;12.074;2023-03-26T03:18:39;97079.97;;;9.03;61.98
2841;BME280;53423;49.224;12.074;2023-03-26T03:21:07;97075.09;;;9.00;61.90
2841;BME280;53423;49.224;12.074;2023-03-26T03:23:35;97071.81;;;8.98;62.23
2841;BME280;53423;49.224;12.074;2023-03-26T03:26:03;97067.44;;;8.90;62.42
2841;BME280;53423;49.224;12.074;2023-03-26T03:28:32;97068.25;;;8.91;62.56
2841;BME280;53423;49.224;12.074;2023-03-26T03:31:00;97074.13;;;8.93;62.31
2841;BME280;53423;49.224;12.074;2023-03-26T03:33:28;97061.91;;;8.85;62.19
2841;BME280;53423;49.224;12.074;2023-03-26T03:35:57;97070.72;;;8.84;62.12
2841;BME280;53423;49.224;12.074;2023-03-26T03:38:25;97064.34;;;8.87;62.66
2841;BME280;53423;49.224;12.074;2023-03-26T03:40:53;97052.09;;;8.87;62.55
2841;BME280;53423;49.224;12.074;2023-03-26T03:43:21;97055.69;;;8.86;61.88
2841;BME280;53423;49.224;12.074;2023-03-26T03:45:49;97058.72;;;8.59;61.87
2841;BME280;53423;49.224;12.074;2023-03-26T03:48:17;97051.69;;;8.67;61.91
2841;BME280;53423;49.224;12.074;2023-03-26T03:50:45;97051.53;;;8.61;61.98
2841;BME280;53423;49.224;12.074;2023-03-26T03:53:14;97043.69;;;8.61;62.17
2841;BME280;53423;49.224;12.074;2023-03-26T03:55:44;97051.38;;;8.54;62.46
2841;BME280;53423;49.224;12.074;2023-03-26T03:58:18;97053.50;;;8.59;61.68
2841;BME280;53423;49.224;12.074;2023-03-26T04:00:48;97053.00;;;8.55;62.15
2841;BME280;53423;49.224;12.074;2023-03-26T04:03:16;97051.41;;;8.38;62.61
2841;BME280;53423;49.224;12.074;2023-03-26T04:05:58;97046.03;;;8.32;62.14
2841;BME280;53423;49.224;12.074;2023-03-26T04:08:27;97041.13;;;8.37;61.77
2841;BME280;53423;49.224;12.074;2023-03-26T04:10:55;97051.59;;;8.29;62.21
2841;BME280;53423;49.224;12.074;2023-03-26T04:13:23;97045.38;;;8.22;63.10
2841;BME280;53423;49.224;12.074;2023-03-26T04:15:51;97044.09;;;8.26;62.12
2841;BME280;53423;49.224;12.074;2023-03-26T04:18:20;97045.72;;;8.19;62.76
2841;BME280;53423;49.224;12.074;2023-03-26T04:20:48;97041.50;;;8.26;62.87
2841;BME280;53423;49.224;12.074;2023-03-26T04:23:17;97031.69;;;8.20;62.88
2841;BME280;53423;49.224;12.074;2023-03-26T04:25:49;97038.69;;;8.19;62.92
2841;BME280;53423;49.224;12.074;2023-03-26T04:28:26;97036.44;;;8.00;63.46
2841;BME280;53423;49.224;12.074;2023-03-26T04:30:57;97033.31;;;8.05;62.73
2841;BME280;53423;49.224;12.074;2023-03-26T04:33:28;97041.66;;;7.84;63.24
2841;BME280;53423;49.224;12.074;2023-03-26T04:35:56;97044.91;;;7.94;62.76
2841;BME280;53423;49.224;12.074;2023-03-26T04:38:28;97041.47;;;7.70;63.33
2841;BME280;53423;49.224;12.074;2023-03-26T04:41:00;97046.84;;;7.60;63.33
2841;BME280;53423;49.224;12.074;2023-03-26T04:43:30;97044.09;;;7.70;63.72
2841;BME280;53423;49.224;12.074;2023-03-26T04:46:01;97035.31;;;7.63;63.21
2841;BME280;53423;49.224;12.074;2023-03-26T04:48:30;97031.22;;;7.52;63.10
2841;BME280;53423;49.224;12.074;2023-03-26T04:50:58;97035.25;;;7.38;62.38
2841;BME280;53423;49.224;12.074;2023-03-26T04:53:26;97042.22;;;7.22;63.21
2841;BME280;53423;49.224;12.074;2023-03-26T04:55:58;97043.03;;;7.22;63.29
2841;BME280;53423;49.224;12.074;2023-03-26T04:58:28;97039.13;;;7.26;63.77
2841;BME280;53423;49.224;12.074;2023-03-26T05:00:59;97042.25;;;7.46;63.35
2841;BME280;53423;49.224;12.074;2023-03-26T05:03:36;97046.97;;;7.34;64.34
2841;BME280;53423;49.224;12.074;2023-03-26T05:06:09;97038.16;;;7.27;63.75
2841;BME280;53423;49.224;12.074;2023-03-26T05:08:38;97035.22;;;7.22;63.67
2841;BME280;53423;49.224;12.074;2023-03-26T05:11:09;97032.25;;;7.09;63.74
2841;BME280;53423;49.224;12.074;2023-03-26T05:13:38;97028.53;;;7.12;63.97
2841;BME280;53423;49.224;12.074;2023-03-26T05:16:09;97034.34;;;6.98;64.51
2841;BME280;53423;49.224;12.074;2023-03-26T05:18:37;97030.72;;;6.91;64.97
2841;BME280;53423;49.224;12.074;2023-03-26T05:21:05;97026.38;;;7.07;64.57
2841;BME280;53423;49.224;12.074;2023-03-26T05:23:33;97026.81;;;6.87;65.49
2841;BME280;53423;49.224;12.074;2023-03-26T05:26:01;97024.91;;;6.97;65.38
2841;BME280;53423;49.224;12.074;2023-03-26T05:28:29;97018.53;;;6.99;65.49
2841;BME280;53423;49.224;12.074;2023-03-26T05:30:59;97017.28;;;7.11;64.56
2841;BME280;53423;49.224;12.074;2023-03-26T05:33:28;97021.81;;;7.01;65.06
2841;BME280;53423;49.224;12.074;2023-03-26T05:36:00;97023.78;;;7.07;65.56
2841;BME280;53423;49.224;12.074;2023-03-26T05:38:29;97007.56;;;7.62;64.56
2841;BME280;53423;49.224;12.074;2023-03-26T05:40:58;97007.75;;;7.76;64.88
2841;BME280;53423;49.224;12.074;2023-03-26T05:43:26;97003.66;;;7.90;63.40
2841;BME280;53423;49.224;12.074;2023-03-26T05:45:54;96998.28;;;7.99;63.55
2841;BME280;53423;49.224;12.074;2023-03-26T05:48:24;97002.34;;;8.02;63.39
2841;BME280;53423;49.224;12.074;2023-03-26T05:50:54;97001.06;;;7.98;63.44
2841;BME280;53423;49.224;12.074;2023-03-26T05:53:25;97001.19;;;8.12;64.02
2841;BME280;53423;49.224;12.074;2023-03-26T05:55:53;97000.84;;;8.39;62.52
2841;BME280;53423;49.224;12.074;2023-03-26T05:58:24;96999.34;;;8.37;62.88
2841;BME280;53423;49.224;12.074;2023-03-26T06:00:56;96991.56;;;8.05;63.66
2841;BME280;53423;49.224;12.074;2023-03-26T06:03:26;96992.16;;;8.47;62.80
2841;BME280;53423;49.224;12.074;2023-03-26T06:05:54;96985.47;;;8.44;63.04
2841;BME280;53423;49.224;12.074;2023-03-26T06:08:23;96988.25;;;8.43;63.18
2841;BME280;53423;49.224;12.074;2023-03-26T06:10:57;96990.84;;;8.51;62.86
2841;BME280;53423;49.224;12.074;2023-03-26T06:13:25;96978.78;;;8.50;62.87
2841;BME280;53423;49.224;12.074;2023-03-26T06:15:54;96986.06;;;8.62;63.36
2841;BME280;53423;49.224;12.074;2023-03-26T06:18:23;96972.16;;;9.01;62.40
2841;BME280;53423;49.224;12.074;2023-03-26T06:20:53;96974.09;;;9.07;61.78
2841;BME280;53423;49.224;12.074;2023-03-26T06:23:21;96970.38;;;9.01;62.24
2841;BME280;53423;49.224;12.074;2023-03-26T06:25:49;96967.41;;;9.04;62.35
2841;BME280;53423;49.224;12.074;2023-03-26T06:28:17;96968.22;;;8.74;62.80
2841;BME280;53423;49.224;12.074;2023-03-26T06:30:45;96957.41;;;8.77;63.34
2841;BME280;53423;49.224;12.074;2023-03-26T06:33:13;96954.13;;;8.83;63.50
2841;BME280;53423;49.224;12.074;2023-03-26T06:35:41;96955.41;;;8.87;62.99
2841;BME280;53423;49.224;12.074;2023-03-26T06:38:11;96956.50;;;9.83;60.65
2841;BME280;53423;49.224;12.074;2023-03-26T06:40:39;96948.03;;;10.33;59.59
2841;BME280;53423;49.224;12.074;2023-03-26T06:43:07;96952.72;;;10.23;59.61
2841;BME280;53423;49.224;12.074;2023-03-26T06:45:36;96938.75;;;9.93;60.04
2841;BME280;53423;49.224;12.074;2023-03-26T06:48:05;96936.16;;;10.66;59.23
2841;BME280;53423;49.224;12.074;2023-03-26T06:50:34;96929.47;;;10.78;58.07
2841;BME280;53423;49.224;12.074;2023-03-26T06:53:01;96930.31;;;10.20;60.79
2841;BME280;53423;49.224;12.074;2023-03-26T06:55:31;96931.16;;;10.85;59.10
2841;BME280;53423;49.224;12.074;2023-03-26T06:57:59;96928.69;;;10.63;58.76
2841;BME280;53423;49.224;12.074;2023-03-26T07:00:26;96929.44;;;10.28;59.23
2841;BME280;53423;49.224;12.074;2023-03-26T07:02:55;96921.03;;;10.32;59.52
2841;BME280;53423;49.224;12.074;2023-03-26T07:05:23;96927.56;;;9.99;60.62
2841;BME280;53423;49.224;12.074;2023-03-26T07:07:51;96923.09;;;9.56;62.00
2841;BME280;53423;49.224;12.074;2023-03-26T07:10:18;96919.47;;;9.34;62.68
2841;BME280;53423;49.224;12.074;2023-03-26T07:12:48;96925.72;;;9.70;62.26
2841;BME280;53423;49.224;12.074;2023-03-26T07:15:16;96926.66;;;9.92;60.95
2841;BME280;53423;49.224;12.074;2023-03-26T07:17:44;96923.75;;;9.72;62.24
2841;BME280;53423;49.224;12.074;2023-03-26T07:20:12;96921.69;;;9.45;62.21
2841;BME280;53423;49.224;12.074;2023-03-26T07:22:40;96917.72;;;9.49;62.84
2841;BME280;53423;49.224;12.074;2023-03-26T07:25:10;96900.25;;;9.64;62.95
2841;BME280;53423;49.224;12.074;2023-03-26T07:27:46;96901.25;;;9.63;62.82
2841;BME280;53423;49.224;12.074;2023-03-26T07:30:21;96888.06;;;9.57;62.78
2841;BME280;53423;49.224;12.074;2023-03-26T07:32:56;96885.19;;;9.66;62.92
2841;BME280;53423;49.224;12.074;2023-03-26T07:35:29;96880.16;;;9.28;63.58
2841;BME280;53423;49.224;12.074;2023-03-26T07:38:12;96887.44;;;9.69;62.93
2841;BME280;53423;49.224;12.074;2023-03-26T07:40:54;96880.94;;;9.14;63.87
2841;BME280;53423;49.224;12.074;2023-03-26T07:43:35;96878.34;;;9.28;64.39
2841;BME280;53423;49.224;12.074;2023-03-26T07:46:10;96879.22;;;9.43;64.04
2841;BME280;53423;49.224;12.074;2023-03-26T07:48:40;96871.75;;;9.69;63.20
2841;BME280;53423;49.224;12.074;2023-03-26T07:51:10;96866.16;;;9.58;63.85
2841;BME280;53423;49.224;12.074;2023-03-26T07:53:38;96868.25;;;9.91;63.12
2841;BME280;53423;49.224;12.074;2023-03-26T07:56:11;96870.31;;;9.81;62.77
2841;BME280;53423;49.224;12.074;2023-03-26T07:58:53;96868.16;;;9.56;62.70
2841;BME280;53423;49.224;12.074;2023-03-26T08:01:38;96861.59;;;9.89;62.45
2841;BME280;53423;49.224;12.074;2023-03-26T08:07:24;96856.34;;;9.89;62.10
2841;BME280;53423;49.224;12.074;2023-03-26T08:10:01;96851.81;;;9.54;62.86
2841;BME280;53423;49.224;12.074;2023-03-26T08:12:38;96847.59;;;9.67;63.37
2841;BME280;53423;49.224;12.074;2023-03-26T08:15:12;96834.41;;;9.75;62.41
2841;BME280;53423;49.224;12.074;2023-03-26T08:17:48;96830.78;;;9.76;62.67
2841;BME280;53423;49.224;12.074;2023-03-26T08:20:26;96829.78;;;9.63;62.59
2841;BME280;53423;49.224;12.074;2023-03-26T08:23:04;96824.50;;;9.71;62.75
2841;BME280;53423;49.224;12.074;2023-03-26T08:25:44;96829.19;;;9.90;62.38
2841;BME280;53423;49.224;12.074;2023-03-26T08:28:24;96820.91;;;10.16;62.27
2841;BME280;53423;49.224;12.074;2023-03-26T08:30:56;96812.03;;;9.87;61.73
2841;BME280;53423;49.224;12.074;2023-03-26T08:33:30;96808.69;;;10.23;61.40
2841;BME280;53423;49.224;12.074;2023-03-26T08:36:02;96810.94;;;9.96;61.28
2841;BME280;53423;49.224;12.074;2023-03-26T08:38:30;96808.72;;;9.79;62.54
2841;BME280;53423;49.224;12.074;2023-03-26T08:44:36;96801.31;;;9.82;61.97
2841;BME280;53423;49.224;12.074;2023-03-26T08:50:43;96807.72;;;9.51;63.90
2841;BME280;53423;49.224;12.074;2023-03-26T08:56:38;96795.50;;;9.43;62.75
2841;BME280;53423;49.224;12.074;2023-03-26T08:59:36;96788.50;;;9.44;63.33
2841;BME280;53423;49.224;12.074;2023-03-26T09:02:43;96790.72;;;9.32;63.86
2841;BME280;53423;49.224;12.074;2023-03-26T09:05:51;96786.13;;;9.34;63.94
2841;BME280;53423;49.224;12.074;2023-03-26T09:08:54;96781.81;;;9.56;63.98
2841;BME280;53423;49.224;12.074;2023-03-26T09:18:07;96751.13;;;9.64;65.62
2841;BME280;53423;49.224;12.074;2023-03-26T09:21:06;96736.06;;;9.81;64.28
2841;BME280;53423;49.224;12.074;2023-03-26T09:24:10;96735.44;;;9.79;64.14
2841;BME280;53423;49.224;12.074;2023-03-26T09:26:45;96737.78;;;9.74;64.41
2841;BME280;53423;49.224;12.074;2023-03-26T09:29:51;96729.94;;;9.59;64.67
2841;BME280;53423;49.224;12.074;2023-03-26T09:35:49;96713.16;;;10.19;63.06
2841;BME280;53423;49.224;12.074;2023-03-26T09:38:43;96713.59;;;10.22;61.80
2841;BME280;53423;49.224;12.074;2023-03-26T09:41:14;96708.44;;;10.29;61.59
2841;BME280;53423;49.224;12.074;2023-03-26T09:44:06;96698.41;;;10.53;61.74
2841;BME280;53423;49.224;12.074;2023-03-26T09:46:45;96691.78;;;10.57;61.80
2841;BME280;53423;49.224;12.074;2023-03-26T09:49:28;96692.84;;;10.63;62.02
2841;BME280;53423;49.224;12.074;2023-03-26T09:52:27;96691.78;;;10.36;64.25
2841;BME280;53423;49.224;12.074;2023-03-26T09:58:07;96691.34;;;10.33;64.31
2841;BME280;53423;49.224;12.074;2023-03-26T10:00:47;96692.09;;;10.27;63.93
2841;BME280;53423;49.224;12.074;2023-03-26T10:03:27;96686.38;;;10.38;63.79
2841;BME280;53423;49.224;12.074;2023-03-26T10:06:11;96674.50;;;10.42;63.09
2841;BME280;53423;49.224;12.074;2023-03-26T10:08:49;96673.53;;;10.43;64.20
2841;BME280;53423;49.224;12.074;2023-03-26T10:11:28;96667.13;;;10.52;64.46
2841;BME280;53423;49.224;12.074;2023-03-26T10:14:04;96661.84;;;10.24;62.69
2841;BME280;53423;49.224;12.074;2023-03-26T10:16:44;96653.69;;;9.98;65.59
2841;BME280;53423;49.224;12.074;2023-03-26T10:19:27;96652.16;;;10.03;64.57
2841;BME280;53423;49.224;12.074;2023-03-26T10:22:02;96654.63;;;10.26;64.52
2841;BME280;53423;49.224;12.074;2023-03-26T10:25:14;96658.91;;;10.34;64.68
2841;BME280;53423;49.224;12.074;2023-03-26T10:27:51;96669.25;;;10.42;64.56
2841;BME280;53423;49.224;12.074;2023-03-26T10:30:56;96664.16;;;10.55;64.83
2841;BME280;53423;49.224;12.074;2023-03-26T10:33:39;96662.22;;;10.63;64.12
2841;BME280;53423;49.224;12.074;2023-03-26T10:36:21;96662.63;;;10.67;63.38
2841;BME280;53423;49.224;12.074;2023-03-26T10:39:11;96662.41;;;10.41;63.99
2841;BME280;53423;49.224;12.074;2023-03-26T10:42:14;96667.06;;;10.45;63.27
2841;BME280;53423;49.224;12.074;2023-03-26T10:45:08;96656.09;;;10.56;64.94
2841;BME280;53423;49.224;12.074;2023-03-26T10:48:00;96662.75;;;10.59;66.21
2841;BME280;53423;49.224;12.074;2023-03-26T10:50:51;96665.81;;;10.62;65.01
2841;BME280;53423;49.224;12.074;2023-03-26T10:53:30;96664.59;;;10.58;65.94
2841;BME280;53423;49.224;12.074;2023-03-26T10:56:06;96667.22;;;10.16;66.11
2841;BME280;53423;49.224;12.074;2023-03-26T10:58:39;96669.41;;;10.13;66.36
2841;BME280;53423;49.224;12.074;2023-03-26T11:01:23;96665.66;;;10.22;66.55
2841;BME280;53423;49.224;12.074;2023-03-26T11:03:55;96662.25;;;10.21;67.71
2841;BME280;53423;49.224;12.074;2023-03-26T11:06:36;96662.75;;;9.95;68.07
2841;BME280;53423;49.224;12.074;2023-03-26T11:09:19;96657.56;;;9.81;67.71
2841;BME280;53423;49.224;12.074;2023-03-26T11:11:53;96646.22;;;10.10;68.54
2841;BME280;53423;49.224;12.074;2023-03-26T11:14:29;96649.44;;;10.12;67.99
2841;BME280;53423;49.224;12.074;2023-03-26T11:17:12;96650.97;;;10.06;67.07
2841;BME280;53423;49.224;12.074;2023-03-26T11:20:06;96648.53;;;10.19;67.67
2841;BME280;53423;49.224;12.074;2023-03-26T11:22:46;96647.22;;;10.30;68.42
2841;BME280;53423;49.224;12.074;2023-03-26T11:25:47;96648.63;;;10.32;67.95
2841;BME280;53423;49.224;12.074;2023-03-26T11:28:27;96653.69;;;10.13;67.88
2841;BME280;53423;49.224;12.074;2023-03-26T11:31:01;96650.41;;;9.89;68.84
2841;BME280;53423;49.224;12.074;2023-03-26T11:33:34;96660.59;;;9.84;69.08
2841;BME280;53423;49.224;12.074;2023-03-26T11:36:13;96662.13;;;9.43;69.55
2841;BME280;53423;49.224;12.074;2023-03-26T11:38:45;96659.00;;;9.33;70.09
2841;BME280;53423;49.224;12.074;2023-03-26T11:41:15;96659.63;;;9.35;69.97
2841;BME280;53423;49.224;12.074;2023-03-26T11:43:51;96658.69;;;9.43;69.73
2841;BME280;53423;49.224;12.074;2023-03-26T11:46:22;96659.88;;;9.26;69.27
2841;BME280;53423;49.224;12.074;2023-03-26T11:48:54;96654.50;;;9.27;70.50
2841;BME280;53423;49.224;12.074;2023-03-26T11:51:29;96650.97;;;9.20;70.80
2841;BME280;53423;49.224;12.074;2023-03-26T11:53:58;96646.72;;;9.19;69.96
2841;BME280;53423;49.224;12.074;2023-03-26T11:56:29;96639.88;;;9.18;70.49
2841;BME280;53423;49.224;12.074;2023-03-26T11:59:02;96634.09;;;9.23;70.86
2841;BME280;53423;49.224;12.074;2023-03-26T12:01:42;96638.19;;;9.25;70.33
2841;BME280;53423;49.224;12.074;2023-03-26T12:04:14;96623.31;;;8.97;71.30
2841;BME280;53423;49.224;12.074;2023-03-26T12:06:50;96623.19;;;9.19;69.90
2841;BME280;53423;49.224;12.074;2023-03-26T12:09:19;96612.31;;;9.01;71.01
2841;BME280;53423;49.224;12.074;2023-03-26T12:11:48;96600.06;;;9.02;71.13
2841;BME280;53423;49.224;12.074;2023-03-26T12:14:21;96598.66;;;9.35;70.47
2841;BME280;53423;49.224;12.074;2023-03-26T12:16:59;96584.16;;;9.32;69.88
2841;BME280;53423;49.224;12.074;2023-03-26T12:19:35;96581.75;;;9.52;70.21
2841;BME280;53423;49.224;12.074;2023-03-26T12:22:05;96571.13;;;9.95;68.56
2841;BME280;53423;49.224;12.074;2023-03-26T12:25:00;96566.97;;;10.01;68.87
2841;BME280;53423;49.224;12.074;2023-03-26T12:27:28;96560.72;;;10.02;68.13
2841;BME280;53423;49.224;12.074;2023-03-26T12:30:09;96559.00;;;10.09;68.45
2841;BME280;53423;49.224;12.074;2023-03-26T12:32:38;96557.16;;;10.31;68.05
2841;BME280;53423;49.224;12.074;2023-03-26T12:35:15;96547.38;;;10.18;68.42
2841;BME280;53423;49.224;12.074;2023-03-26T12:37:45;96551.88;;;9.82;68.32
2841;BME280;53423;49.224;12.074;2023-03-26T12:40:32;96539.72;;;9.53;69.90
2841;BME280;53423;49.224;12.074;2023-03-26T12:43:03;96539.31;;;9.71;69.48
2841;BME280;53423;49.224;12.074;2023-03-26T12:45:54;96539.59;;;10.03;68.97
2841;BME280;53423;49.224;12.074;2023-03-26T12:48:44;96542.13;;;10.18;68.69
2841;BME280;53423;49.224;12.074;2023-03-26T12:51:21;96541.34;;;10.18;67.78
2841;BME280;53423;49.224;12.074;2023-03-26T12:54:14;96537.59;;;10.05;68.40
2841;BME280;53423;49.224;12.074;2023-03-26T12:56:59;96533.75;;;9.80;68.62
2841;BME280;53423;49.224;12.074;2023-03-26T12:59:57;96524.81;;;10.17;68.17
2841;BME280;53423;49.224;12.074;2023-03-26T13:03:03;96521.50;;;10.30;67.77
2841;BME280;53423;49.224;12.074;2023-03-26T13:05:43;96524.06;;;10.02;68.45
2841;BME280;53423;49.224;12.074;2023-03-26T13:08:42;96520.44;;;10.24;69.03
2841;BME280;53423;49.224;12.074;2023-03-26T13:11:20;96519.84;;;10.01;68.92
2841;BME280;53423;49.224;12.074;2023-03-26T13:14:05;96514.75;;;10.14;68.75
2841;BME280;53423;49.224;12.074;2023-03-26T13:16:43;96517.19;;;9.94;69.29
2841;BME280;53423;49.224;12.074;2023-03-26T13:19:19;96509.38;;;10.01;69.80
2841;BME280;53423;49.224;12.074;2023-03-26T13:22:00;96509.03;;;10.66;67.84
2841;BME280;53423;49.224;12.074;2023-03-26T13:24:40;96489.16;;;10.84;67.98
2841;BME280;53423;49.224;12.074;2023-03-26T13:27:27;96488.19;;;10.51;67.79
2841;BME280;53423;49.224;12.074;2023-03-26T13:30:06;96481.97;;;10.59;67.58
2841;BME280;53423;49.224;12.074;2023-03-26T13:32:49;96488.16;;;10.17;68.88
2841;BME280;53423;49.224;12.074;2023-03-26T13:35:29;96475.84;;;10.45;68.45
2841;BME280;53423;49.224;12.074;2023-03-26T13:38:04;96476.22;;;10.76;67.42
2841;BME280;53423;49.224;12.074;2023-03-26T13:40:44;96478.53;;;10.99;66.58
2841;BME280;53423;49.224;12.074;2023-03-26T13:43:23;96475.81;;;10.73;67.67
2841;BME280;53423;49.224;12.074;2023-03-26T13:45:59;96475.25;;;10.43;67.69
2841;BME280;53423;49.224;12.074;2023-03-26T13:48:36;96472.50;;;10.58;68.72
2841;BME280;53423;49.224;12.074;2023-03-26T13:51:11;96469.88;;;10.58;68.26
2841;BME280;53423;49.224;12.074;2023-03-26T13:53:46;96465.09;;;10.34;67.75
2841;BME280;53423;49.224;12.074;2023-03-26T13:56:23;96466.63;;;10.49;68.14
2841;BME280;53423;49.224;12.074;2023-03-26T13:58:54;96459.19;;;10.53;68.98
2841;BME280;53423;49.224;12.074;2023-03-26T14:01:27;96458.34;;;10.18;69.38
2841;BME280;53423;49.224;12.074;2023-03-26T14:04:04;96464.59;;;10.17;69.69
2841;BME280;53423;49.224;12.074;2023-03-26T14:06:40;96462.78;;;10.11;70.27
2841;BME280;53423;49.224;12.074;2023-03-26T14:09:17;96469.09;;;10.02;70.94
2841;BME280;53423;49.224;12.074;2023-03-26T14:11:59;96463.13;;;10.08;71.80
2841;BME280;53423;49.224;12.074;2023-03-26T14:14:33;96458.56;;;10.17;71.39